Time;durP1;ratioP1;P1;durP2;ratioP2;P2;SDS_P1;SDS_P2;PMS_P1;PMS_P2;Temp;Humidity;BMP_temperature;BMP_pressure;BME280_temperature;BME280_humidity;BME280_pressure;Samples;Min_cycle;Max_cycle;Signal;HPM_P1;HPM_P2
2023/12/31 00:03:28;;;;;;;;;;;8.50;1.00;;;;;;5110517;28;19919;-82
2023/12/31 00:06:16;;;;;;;;;;;8.60;1.00;;;;;;5099183;28;19916;-82
2023/12/31 00:09:04;;;;;;;;;;;8.60;1.00;;;;;;5100443;28;19915;-82
2023/12/31 00:14:34;;;;;;;;;;;8.60;1.00;;;;;;5139193;27;20431;-83
2023/12/31 00:17:34;;;;;;;;;;;8.60;1.00;;;;;;5113160;28;19919;-83
2023/12/31 00:20:34;;;;;;;;;;;8.50;1.00;;;;;;5096721;28;20006;-82
2023/12/31 00:22:59;;;;;;;;;;;8.50;1.00;;;;;;5096657;28;19916;-83
2023/12/31 00:25:34;;;;;;;;;;;8.40;1.00;;;;;;5096605;28;20015;-83
2023/12/31 00:28:04;;;;;;;;;;;8.30;1.00;;;;;;5100069;28;19950;-82
2023/12/31 00:30:35;;;;;;;;;;;8.20;1.00;;;;;;5100030;28;19908;-82
2023/12/31 00:33:34;;;;;;;;;;;8.10;1.00;;;;;;5099404;28;19962;-82
2023/12/31 00:36:34;;;;;;;;;;;7.90;1.00;;;;;;5099725;28;19922;-83
2023/12/31 00:39:04;;;;;;;;;;;7.70;1.00;;;;;;5099742;28;19908;-83
2023/12/31 00:41:34;;;;;;;;;;;7.60;1.00;;;;;;5089922;28;19912;-83
2023/12/31 00:44:04;;;;;;;;;;;7.50;1.00;;;;;;5079625;28;19912;-83
2023/12/31 00:46:34;;;;;;;;;;;7.30;1.00;;;;;;5090213;28;19908;-83
2023/12/31 00:49:21;;;;;;;;;;;7.20;1.00;;;;;;5095169;28;19920;-82
2023/12/31 00:51:47;;;;;;;;;;;7.10;1.00;;;;;;5079275;28;19920;-83
2023/12/31 00:54:34;;;;;;;;;;;7.10;1.00;;;;;;5079210;27;19915;-82
2023/12/31 00:57:04;;;;;;;;;;;7.00;1.00;;;;;;5098670;28;19916;-83
2023/12/31 00:59:34;;;;;;;;;;;7.00;1.00;;;;;;5093877;28;20374;-83
2023/12/31 01:01:59;;;;;;;;;;;6.90;1.00;;;;;;5098266;28;19920;-83
2023/12/31 01:04:25;;;;;;;;;;;6.80;1.00;;;;;;5089869;28;19965;-83
2023/12/31 01:10:04;;;;;;;;;;;6.70;1.00;;;;;;5110833;28;19966;-83
2023/12/31 01:12:34;;;;;;;;;;;6.60;1.00;;;;;;5098873;28;19907;-83
2023/12/31 01:21:34;;;;;;;;;;;6.30;1.00;;;;;;5112086;28;19918;-83
2023/12/31 01:27:03;;;;;;;;;;;6.10;1.00;;;;;;5118983;27;19915;-83
2023/12/31 01:30:04;;;;;;;;;;;6.10;1.00;;;;;;5114635;28;20324;-77
2023/12/31 01:32:34;;;;;;;;;;;5.90;1.00;;;;;;5111858;28;19912;-76
2023/12/31 01:35:04;;;;;;;;;;;;;;;;;;5113785;28;19968;-76
2023/12/31 01:37:52;;;;;;;;;;;5.80;1.00;;;;;;5137139;27;19915;-77
2023/12/31 01:45:59;;;;;;;;;;;5.60;1.00;;;;;;5107807;27;19927;-83
2023/12/31 01:48:34;;;;;;;;;;;5.50;1.00;;;;;;5137241;27;19907;-83
2023/12/31 01:51:34;;;;;;;;;;;5.40;1.00;;;;;;5096318;28;19923;-83
2023/12/31 01:54:04;;;;;;;;;;;5.40;1.00;;;;;;5104832;27;19927;-83
2023/12/31 01:56:52;;;;;;;;;;;5.30;1.00;;;;;;5104912;28;19912;-83
2023/12/31 01:59:34;;;;;;;;;;;5.30;1.00;;;;;;5086599;28;19915;-77
2023/12/31 02:02:04;;;;;;;;;;;5.20;1.00;;;;;;5095564;28;20285;-77
2023/12/31 02:04:34;;;;;;;;;;;5.10;1.00;;;;;;5099188;28;19922;-76
2023/12/31 02:07:04;;;;;;;;;;;5.10;1.00;;;;;;5096738;28;20286;-76
2023/12/31 02:09:34;;;;;;;;;;;5.00;1.00;;;;;;5102402;28;19916;-76
2023/12/31 02:12:05;;;;;;;;;;;4.90;1.00;;;;;;5109945;27;19908;-77
2023/12/31 02:14:34;;;;;;;;;;;4.80;1.00;;;;;;5125899;27;19916;-76
2023/12/31 02:17:04;;;;;;;;;;;;;;;;;;5111590;27;19916;-77
2023/12/31 02:20:06;;;;;;;;;;;4.80;1.90;;;;;;5097490;28;19916;-77
2023/12/31 02:22:34;;;;;;;;;;;;;;;;;;5115524;28;20348;-77
2023/12/31 02:25:05;;;;;;;;;;;4.80;3.90;;;;;;5115566;28;19915;-76
2023/12/31 02:27:34;;;;;;;;;;;4.80;3.50;;;;;;5120949;27;19912;-77
2023/12/31 02:30:00;;;;;;;;;;;4.80;2.40;;;;;;5127112;27;20423;-77
2023/12/31 02:32:34;;;;;;;;;;;4.80;1.00;;;;;;5101486;28;19995;-77
2023/12/31 02:35:16;;;;;;;;;;;4.70;1.00;;;;;;5105470;28;19908;-77
2023/12/31 02:37:58;;;;;;;;;;;4.60;1.00;;;;;;5117133;27;19911;-77
2023/12/31 02:40:34;;;;;;;;;;;;;;;;;;5135879;27;19907;-77
2023/12/31 02:43:04;;;;;;;;;;;4.60;1.00;;;;;;5112872;27;19923;-76
2023/12/31 02:46:04;;;;;;;;;;;4.50;1.30;;;;;;5097084;27;19920;-76
2023/12/31 02:48:34;;;;;;;;;;;4.50;3.60;;;;;;5121322;27;19912;-76
2023/12/31 02:51:04;;;;;;;;;;;4.50;5.30;;;;;;5111715;28;19920;-77
2023/12/31 02:53:30;;;;;;;;;;;4.50;6.00;;;;;;5102248;27;19962;-77
2023/12/31 02:59:04;;;;;;;;;;;4.40;6.00;;;;;;5115345;27;19933;-83
2023/12/31 03:04:32;;;;;;;;;;;4.30;7.40;;;;;;5104457;28;19923;-82
2023/12/31 03:06:58;;;;;;;;;;;4.30;7.50;;;;;;5096793;28;19908;-82
2023/12/31 03:12:26;;;;;;;;;;;4.30;8.80;;;;;;5105919;28;19968;-82
2023/12/31 03:14:52;;;;;;;;;;;4.20;6.90;;;;;;5082951;28;20402;-82
2023/12/31 03:20:21;;;;;;;;;;;4.10;17.70;;;;;;5131355;27;19946;-83
2023/12/31 03:28:53;;;;;;;;;;;4.20;18.20;;;;;;5094219;28;19954;-82
2023/12/31 03:34:22;;;;;;;;;;;4.30;17.70;;;;;;5096818;28;19915;-77
2023/12/31 03:45:59;;;;;;;;;;;4.30;17.50;;;;;;5094675;28;19919;-82
2023/12/31 03:51:09;;;;;;;;;;;4.50;20.40;;;;;;5103464;28;19972;-82
2023/12/31 04:02:46;;;;;;;;;;;4.50;15.90;;;;;;5105566;28;19916;-76
2023/12/31 04:05:34;;;;;;;;;;;4.50;17.20;;;;;;5102849;28;19918;-76
2023/12/31 04:08:04;;;;;;;;;;;4.70;18.80;;;;;;5105855;28;19912;-77
2023/12/31 04:13:32;;;;;;;;;;;4.80;19.70;;;;;;5129894;28;19915;-76
2023/12/31 04:22:04;;;;;;;;;;;5.10;21.60;;;;;;5125191;28;19915;-82
2023/12/31 04:24:34;;;;;;;;;;;5.10;18.50;;;;;;5111111;28;19915;-83
2023/12/31 04:27:04;;;;;;;;;;;;;;;;;;5134742;28;19921;-82
2023/12/31 04:30:04;;;;;;;;;;;5.30;17.90;;;;;;5116712;28;19964;-81
2023/12/31 04:38:34;;;;;;;;;;;5.40;12.90;;;;;;5106824;28;20298;-83
2023/12/31 04:41:05;;;;;;;;;;;5.50;12.80;;;;;;5118073;28;19921;-83
2023/12/31 04:43:34;;;;;;;;;;;5.60;12.70;;;;;;5087342;28;19908;-83
2023/12/31 04:46:04;;;;;;;;;;;5.70;11.00;;;;;;5096631;28;19920;-83
2023/12/31 04:49:04;;;;;;;;;;;5.70;11.10;;;;;;5117548;28;19908;-84
2023/12/31 04:54:34;;;;;;;;;;;5.70;11.40;;;;;;5097174;28;20329;-83
2023/12/31 04:57:04;;;;;;;;;;;5.80;10.30;;;;;;5079163;28;19912;-82
2023/12/31 04:59:34;;;;;;;;;;;5.80;10.40;;;;;;5101062;28;19916;-83
2023/12/31 05:02:00;;;;;;;;;;;5.80;10.90;;;;;;5105861;28;19923;-77
2023/12/31 05:04:34;;;;;;;;;;;5.90;11.10;;;;;;5105123;28;19912;-76
2023/12/31 05:07:11;;;;;;;;;;;5.90;10.60;;;;;;5129209;27;19912;-77
2023/12/31 05:09:40;;;;;;;;;;;5.90;11.90;;;;;;5129554;27;20390;-77
2023/12/31 05:12:34;;;;;;;;;;;5.90;12.10;;;;;;5129560;27;19957;-77
2023/12/31 05:15:04;;;;;;;;;;;6.00;11.90;;;;;;5103425;28;19915;-80
2023/12/31 05:17:58;;;;;;;;;;;6.00;11.10;;;;;;5134764;27;19915;-76
2023/12/31 05:26:34;;;;;;;;;;;6.00;6.40;;;;;;5112709;27;19978;-77
2023/12/31 05:29:04;;;;;;;;;;;5.90;4.80;;;;;;5109633;28;19919;-77
2023/12/31 05:31:58;;;;;;;;;;;5.90;4.30;;;;;;5096748;28;19912;-82
2023/12/31 05:34:24;;;;;;;;;;;5.90;4.60;;;;;;5095573;28;20018;-82
2023/12/31 05:36:58;;;;;;;;;;;5.80;3.10;;;;;;5095022;28;19962;-82
2023/12/31 05:39:34;;;;;;;;;;;5.80;3.20;;;;;;5099206;28;20003;-82
2023/12/31 05:42:04;;;;;;;;;;;5.80;3.40;;;;;;5078411;28;20314;-82
2023/12/31 05:44:34;;;;;;;;;;;5.80;2.60;;;;;;5078187;28;19923;-83
2023/12/31 05:47:04;;;;;;;;;;;5.70;2.60;;;;;;5109556;28;19941;-77
2023/12/31 05:49:35;;;;;;;;;;;5.70;1.00;;;;;;5102676;28;20006;-76
2023/12/31 05:52:01;;;;;;;;;;;5.70;1.00;;;;;;5108708;27;19927;-77
2023/12/31 05:54:28;;;;;;;;;;;5.70;1.00;;;;;;5128591;27;19908;-76
2023/12/31 05:57:04;;;;;;;;;;;5.70;1.00;;;;;;5102601;28;19908;-77
2023/12/31 05:59:34;;;;;;;;;;;5.60;1.00;;;;;;5117746;27;20374;-77
2023/12/31 06:02:04;;;;;;;;;;;5.60;2.30;;;;;;5133520;27;20002;-77
2023/12/31 06:04:30;;;;;;;;;;;5.70;4.00;;;;;;5109672;28;19915;-76
2023/12/31 06:07:04;;;;;;;;;;;5.70;1.90;;;;;;5122498;27;19912;-77
2023/12/31 06:09:30;;;;;;;;;;;5.80;1.00;;;;;;5126028;27;20426;-76
2023/12/31 06:12:04;;;;;;;;;;;5.80;1.00;;;;;;5136446;27;19947;-77
2023/12/31 06:14:34;;;;;;;;;;;5.80;1.00;;;;;;5120007;27;20428;-76
2023/12/31 06:17:04;;;;;;;;;;;5.80;1.10;;;;;;5095712;28;19918;-77
2023/12/31 06:19:30;;;;;;;;;;;5.80;1.20;;;;;;5110321;27;20002;-78
2023/12/31 06:22:11;;;;;;;;;;;5.80;1.60;;;;;;5116011;28;20004;-77
2023/12/31 06:25:04;;;;;;;;;;;5.80;2.70;;;;;;5115484;28;20397;-76
2023/12/31 06:28:04;;;;;;;;;;;5.80;3.50;;;;;;5119945;27;19933;-77
2023/12/31 06:30:34;;;;;;;;;;;5.80;4.20;;;;;;5107941;28;19916;-77
2023/12/31 06:33:04;;;;;;;;;;;5.90;5.50;;;;;;5106162;28;19923;-77
2023/12/31 06:35:34;;;;;;;;;;;5.80;4.00;;;;;;5095457;28;19920;-76
2023/12/31 06:38:04;;;;;;;;;;;5.90;4.80;;;;;;5120630;27;19965;-76
2023/12/31 06:40:34;;;;;;;;;;;5.90;3.90;;;;;;5113275;28;19964;-76
2023/12/31 06:43:04;;;;;;;;;;;5.90;3.90;;;;;;5104013;27;20011;-77
2023/12/31 06:45:34;;;;;;;;;;;5.90;4.20;;;;;;5098658;28;19916;-77
2023/12/31 06:48:05;;;;;;;;;;;6.00;4.50;;;;;;5108996;28;19965;-77
2023/12/31 06:50:35;;;;;;;;;;;6.00;3.20;;;;;;5101132;28;19920;-77
2023/12/31 06:53:16;;;;;;;;;;;6.10;3.20;;;;;;5115369;28;19919;-88
2023/12/31 06:55:46;;;;;;;;;;;6.10;4.80;;;;;;5115080;28;19911;-83
2023/12/31 06:58:22;;;;;;;;;;;6.10;4.40;;;;;;5103926;28;19908;-78
2023/12/31 07:00:58;;;;;;;;;;;6.20;3.30;;;;;;5126373;27;19912;-82
2023/12/31 07:09:32;;;;;;;;;;;;;;;;;;5108151;27;20305;-83
2023/12/31 07:15:01;;;;;;;;;;;6.40;1.00;;;;;;5103579;27;19968;-82
2023/12/31 07:17:26;;;;;;;;;;;6.40;1.00;;;;;;5089614;28;19994;-75
2023/12/31 07:19:52;;;;;;;;;;;6.40;1.00;;;;;;5119139;27;20382;-75
2023/12/31 07:22:18;;;;;;;;;;;6.40;1.00;;;;;;5102066;28;19915;-75
2023/12/31 07:24:44;;;;;;;;;;;;;;;;;;5102295;28;19982;-75
2023/12/31 07:27:09;;;;;;;;;;;6.40;1.00;;;;;;5094714;28;19978;-75
2023/12/31 07:29:35;;;;;;;;;;;6.50;1.00;;;;;;5112161;27;19912;-75
2023/12/31 07:32:10;;;;;;;;;;;6.40;1.00;;;;;;5102064;28;19931;-75
2023/12/31 07:34:36;;;;;;;;;;;6.40;1.00;;;;;;5113728;28;19989;-75
2023/12/31 07:40:05;;;;;;;;;;;6.50;1.00;;;;;;5106993;28;20425;-75
2023/12/31 07:42:41;;;;;;;;;;;6.50;1.00;;;;;;5108418;28;19914;-75
2023/12/31 07:45:22;;;;;;;;;;;;;;;;;;5117241;28;19915;-74
2023/12/31 07:50:51;;;;;;;;;;;6.60;1.00;;;;;;5115058;28;19922;-83
2023/12/31 07:56:19;;;;;;;;;;;6.70;1.00;;;;;;5094034;28;20329;-83
2023/12/31 08:01:52;;;;;;;;;;;6.80;1.00;;;;;;5099623;28;19954;-75
2023/12/31 08:04:18;;;;;;;;;;;6.80;1.00;;;;;;5114236;28;19907;-75
2023/12/31 08:06:58;;;;;;;;;;;6.80;1.00;;;;;;5106764;28;19934;-75
2023/12/31 08:12:40;;;;;;;;;;;6.90;1.00;;;;;;5111075;28;20316;-75
2023/12/31 08:15:22;;;;;;;;;;;6.90;1.00;;;;;;5103873;27;19908;-75
2023/12/31 08:17:52;;;;;;;;;;;6.90;1.00;;;;;;5098013;27;19912;-75
2023/12/31 08:20:18;;;;;;;;;;;6.90;1.00;;;;;;5105709;27;19911;-75
2023/12/31 08:23:04;;;;;;;;;;;6.90;1.00;;;;;;5119641;27;20064;-75
2023/12/31 08:25:34;;;;;;;;;;;7.00;1.00;;;;;;5104191;28;19959;-75
2023/12/31 08:31:40;;;;;;;;;;;7.00;1.00;;;;;;5110986;28;20381;-77
2023/12/31 08:34:22;;;;;;;;;;;7.00;1.00;;;;;;5093057;28;19951;-76
2023/12/31 08:39:41;;;;;;;;;;;7.00;1.00;;;;;;5106605;28;19915;-77
2023/12/31 08:42:40;;;;;;;;;;;7.00;1.00;;;;;;5117104;27;19918;-76
2023/12/31 08:45:22;;;;;;;;;;;7.10;1.00;;;;;;5111957;28;20325;-76
2023/12/31 08:48:11;;;;;;;;;;;7.10;1.00;;;;;;5103177;28;20003;-75
2023/12/31 08:50:36;;;;;;;;;;;7.10;1.00;;;;;;5103910;28;19916;-76
2023/12/31 08:53:02;;;;;;;;;;;7.20;1.00;;;;;;5117294;28;19922;-76
2023/12/31 08:55:28;;;;;;;;;;;7.20;1.00;;;;;;5117511;28;19969;-75
2023/12/31 09:01:05;;;;;;;;;;;7.40;1.00;;;;;;5108641;28;19915;-76
2023/12/31 09:03:40;;;;;;;;;;;7.40;1.00;;;;;;5111034;27;19918;-76
2023/12/31 09:06:10;;;;;;;;;;;7.50;1.00;;;;;;5103203;28;19915;-76
2023/12/31 09:08:36;;;;;;;;;;;7.50;1.00;;;;;;5116467;28;19914;-76
2023/12/31 09:11:02;;;;;;;;;;;7.50;1.00;;;;;;5121222;27;19911;-76
2023/12/31 09:13:28;;;;;;;;;;;7.60;1.00;;;;;;5093169;28;19981;-76
2023/12/31 09:15:58;;;;;;;;;;;7.60;1.00;;;;;;5124781;27;19945;-76
2023/12/31 09:21:27;;;;;;;;;;;7.80;1.00;;;;;;5104827;28;19920;-83
2023/12/31 09:27:16;;;;;;;;;;;8.00;1.00;;;;;;5116824;28;19933;-82
2023/12/31 09:32:44;;;;;;;;;;;8.00;1.00;;;;;;5097686;28;19974;-76
2023/12/31 09:38:22;;;;;;;;;;;8.00;1.00;;;;;;5131911;27;19918;-76
2023/12/31 09:40:53;;;;;;;;;;;8.00;1.00;;;;;;5137662;27;19907;-76
2023/12/31 09:43:28;;;;;;;;;;;8.00;1.00;;;;;;5111681;27;19912;-75
2023/12/31 09:45:55;;;;;;;;;;;8.10;1.00;;;;;;5105701;28;20424;-76
2023/12/31 09:48:58;;;;;;;;;;;8.10;1.00;;;;;;5113221;28;20274;-83
2023/12/31 09:54:39;;;;;;;;;;;8.10;1.00;;;;;;5102960;28;19918;-83
2023/12/31 09:57:04;;;;;;;;;;;8.20;1.00;;;;;;5097393;28;19995;-83
2023/12/31 09:59:35;;;;;;;;;;;8.10;1.00;;;;;;5096152;28;19965;-83
2023/12/31 10:02:05;;;;;;;;;;;8.20;1.00;;;;;;5113029;27;19939;-83
2023/12/31 10:04:31;;;;;;;;;;;8.20;1.00;;;;;;5104380;27;19915;-76
2023/12/31 10:06:57;;;;;;;;;;;8.30;1.00;;;;;;5112288;28;19916;-76
2023/12/31 10:09:47;;;;;;;;;;;8.30;1.00;;;;;;5095292;28;19912;-76
2023/12/31 10:15:22;;;;;;;;;;;8.40;1.00;;;;;;5107334;28;19965;-75
2023/12/31 10:20:52;;;;;;;;;;;8.40;1.00;;;;;;5102451;28;19915;-82
2023/12/31 10:23:46;;;;;;;;;;;8.40;1.00;;;;;;5098128;28;19915;-83
2023/12/31 10:26:46;;;;;;;;;;;8.30;1.00;;;;;;5115729;27;19961;-83
2023/12/31 10:29:13;;;;;;;;;;;8.30;1.00;;;;;;5103112;28;19998;-83
2023/12/31 10:31:40;;;;;;;;;;;;;;;;;;5093960;28;19907;-82
2023/12/31 10:37:12;;;;;;;;;;;8.50;1.00;;;;;;5115608;28;19915;-82
2023/12/31 10:43:12;;;;;;;;;;;8.50;1.00;;;;;;5096001;28;20019;-82
2023/12/31 10:51:44;;;;;;;;;;;;;;;;;;5101952;28;20022;-82
2023/12/31 10:54:41;;;;;;;;;;;8.80;1.00;;;;;;5112482;27;19942;-82
2023/12/31 10:57:28;;;;;;;;;;;8.90;1.00;;;;;;5099251;28;19912;-83
2023/12/31 11:00:28;;;;;;;;;;;8.90;1.00;;;;;;5095671;28;19915;-82
2023/12/31 11:02:59;;;;;;;;;;;8.90;1.00;;;;;;5076977;28;19962;-83
2023/12/31 11:05:46;;;;;;;;;;;8.90;1.00;;;;;;5121533;27;19912;-75
2023/12/31 11:08:17;;;;;;;;;;;9.00;1.00;;;;;;5117153;27;19911;-75
2023/12/31 11:10:42;;;;;;;;;;;9.00;1.00;;;;;;5115005;27;19908;-75
2023/12/31 11:13:17;;;;;;;;;;;9.10;1.00;;;;;;5117419;27;19914;-75
2023/12/31 11:19:10;;;;;;;;;;;9.00;1.00;;;;;;5110452;28;19915;-82
2023/12/31 11:25:00;;;;;;;;;;;9.20;1.00;;;;;;5098169;28;20278;-82
2023/12/31 11:27:31;;;;;;;;;;;9.20;1.00;;;;;;5114838;28;19913;-82
2023/12/31 11:30:06;;;;;;;;;;;9.10;1.00;;;;;;5080232;28;19915;-82
2023/12/31 11:35:36;;;;;;;;;;;9.10;1.00;;;;;;5111757;28;19938;-82
2023/12/31 11:41:05;;;;;;;;;;;9.10;1.00;;;;;;5093834;28;19927;-82
2023/12/31 11:43:34;;;;;;;;;;;9.00;1.00;;;;;;5110597;28;19907;-82
2023/12/31 11:49:20;;;;;;;;;;;9.00;1.00;;;;;;5102081;28;19915;-82
2023/12/31 11:54:51;;;;;;;;;;;9.20;1.00;;;;;;5106016;28;19953;-83
2023/12/31 12:00:20;;;;;;;;;;;9.40;1.00;;;;;;5097359;28;19923;-82
2023/12/31 12:05:50;;;;;;;;;;;9.40;1.00;;;;;;5118498;28;20419;-83
2023/12/31 12:14:22;;;;;;;;;;;9.60;1.00;;;;;;5115082;28;20022;-83
2023/12/31 12:17:17;;;;;;;;;;;9.60;1.00;;;;;;5101362;28;19951;-83
2023/12/31 12:22:45;;;;;;;;;;;9.30;1.00;;;;;;5118564;28;19915;-75
2023/12/31 12:25:17;;;;;;;;;;;9.40;1.00;;;;;;5118424;28;19912;-75
2023/12/31 12:27:46;;;;;;;;;;;9.30;1.00;;;;;;5122526;27;19948;-75
2023/12/31 12:30:14;;;;;;;;;;;9.30;1.00;;;;;;5116484;27;20423;-75
2023/12/31 12:32:59;;;;;;;;;;;9.40;1.00;;;;;;5116922;28;19998;-75
2023/12/31 12:35:27;;;;;;;;;;;9.40;1.00;;;;;;5114837;28;19916;-75
2023/12/31 12:41:05;;;;;;;;;;;9.40;1.00;;;;;;5106146;28;19995;-75
2023/12/31 12:43:34;;;;;;;;;;;9.40;1.00;;;;;;5113664;27;19915;-75
2023/12/31 12:46:06;;;;;;;;;;;9.50;1.00;;;;;;5118245;27;20011;-75
2023/12/31 12:49:05;;;;;;;;;;;9.40;1.00;;;;;;5103794;28;19915;-75
2023/12/31 12:51:35;;;;;;;;;;;9.40;1.00;;;;;;5108789;28;19926;-75
2023/12/31 13:00:11;;;;;;;;;;;9.60;1.00;;;;;;5111741;28;19965;-80
2023/12/31 13:05:42;;;;;;;;;;;9.60;1.00;;;;;;5102610;28;20015;-82
2023/12/31 13:14:14;;;;;;;;;;;9.70;1.00;;;;;;5110226;27;19915;-82
2023/12/31 13:22:45;;;;;;;;;;;9.70;1.00;;;;;;5138340;27;20419;-81
2023/12/31 13:25:11;;;;;;;;;;;;;;;;;;5137727;27;19911;-85
2023/12/31 13:30:40;;;;;;;;;;;9.80;1.00;;;;;;5104875;28;20057;-85
2023/12/31 13:33:23;;;;;;;;;;;10.00;1.00;;;;;;5079234;28;19965;-80
2023/12/31 13:38:51;;;;;;;;;;;10.00;1.00;;;;;;5116821;28;19957;-75
2023/12/31 13:44:20;;;;;;;;;;;9.90;1.00;;;;;;5133713;27;20392;-76
2023/12/31 13:49:48;;;;;;;;;;;9.80;1.00;;;;;;5096094;28;19923;-75
2023/12/31 13:52:35;;;;;;;;;;;9.70;1.00;;;;;;5114173;27;19916;-76
2023/12/31 13:58:04;;;;;;;;;;;9.70;1.00;;;;;;5095827;28;19988;-76
2023/12/31 14:03:32;;;;;;;;;;;9.70;1.00;;;;;;5099455;28;20303;-79
2023/12/31 14:12:05;;;;;;;;;;;9.70;1.00;;;;;;5102159;28;20281;-80
2023/12/31 14:17:33;;;;;;;;;;;9.60;1.00;;;;;;5107405;28;20258;-81
2023/12/31 14:28:52;;;;;;;;;;;9.40;1.00;;;;;;5116244;28;19954;-85
2023/12/31 14:31:18;;;;;;;;;;;9.30;1.00;;;;;;5109978;28;20321;-85
2023/12/31 14:34:12;;;;;;;;;;;9.30;1.00;;;;;;5099075;28;19916;-84
2023/12/31 14:36:38;;;;;;;;;;;9.30;1.00;;;;;;5096995;28;19914;-85
2023/12/31 14:39:03;;;;;;;;;;;9.30;1.00;;;;;;5098001;28;19908;-84
2023/12/31 14:41:35;;;;;;;;;;;9.30;1.00;;;;;;5089567;28;19919;-83
2023/12/31 14:47:03;;;;;;;;;;;9.20;1.00;;;;;;5096102;28;19919;-81
2023/12/31 14:49:29;;;;;;;;;;;9.20;1.00;;;;;;5107354;28;19908;-81
2023/12/31 15:01:10;;;;;;;;;;;9.10;1.00;;;;;;5094215;28;19919;-78
2023/12/31 15:09:42;;;;;;;;;;;;;;;;;;5115635;28;19985;-81
2023/12/31 15:15:10;;;;;;;;;;;9.00;1.00;;;;;;5108138;28;19922;-81
2023/12/31 15:20:41;;;;;;;;;;;9.00;1.00;;;;;;5104795;28;20381;-82
2023/12/31 15:23:34;;;;;;;;;;;9.00;1.00;;;;;;5100021;28;20002;-79
2023/12/31 15:26:04;;;;;;;;;;;8.90;1.00;;;;;;5082681;28;19916;-82
2023/12/31 15:31:46;;;;;;;;;;;8.80;1.00;;;;;;5110290;27;20328;-83
2023/12/31 15:40:18;;;;;;;;;;;8.80;1.00;;;;;;5094554;28;19915;-81
2023/12/31 15:49:11;;;;;;;;;;;8.60;1.00;;;;;;5113784;28;19956;-80
2023/12/31 15:57:47;;;;;;;;;;;8.50;1.00;;;;;;5123131;28;19963;-79
2023/12/31 16:00:28;;;;;;;;;;;8.50;1.00;;;;;;5135046;28;19908;-81
2023/12/31 16:12:04;;;;;;;;;;;8.40;1.00;;;;;;5114834;28;19915;-83
2023/12/31 16:17:34;;;;;;;;;;;8.40;1.00;;;;;;5094388;28;19930;-84
2023/12/31 16:23:03;;;;;;;;;;;8.20;1.00;;;;;;5097083;28;20420;-83
2023/12/31 16:26:04;;;;;;;;;;;8.20;1.00;;;;;;5095514;28;19916;-84
2023/12/31 16:34:59;;;;;;;;;;;8.20;1.00;;;;;;5107185;28;19964;-80
2023/12/31 16:40:27;;;;;;;;;;;8.20;1.00;;;;;;5125464;27;19933;-77
2023/12/31 16:43:08;;;;;;;;;;;8.20;1.00;;;;;;5120838;27;19911;-77
2023/12/31 16:51:39;;;;;;;;;;;8.10;1.00;;;;;;5109701;28;19922;-76
2023/12/31 16:54:05;;;;;;;;;;;8.10;1.00;;;;;;5111419;28;20282;-78
2023/12/31 16:56:30;;;;;;;;;;;8.10;1.00;;;;;;5117971;27;19920;-76
2023/12/31 16:59:17;;;;;;;;;;;8.00;1.00;;;;;;5118063;27;19912;-77
2023/12/31 17:01:46;;;;;;;;;;;8.00;1.00;;;;;;5121435;27;19912;-75
2023/12/31 17:04:12;;;;;;;;;;;8.00;1.00;;;;;;5138118;27;19908;-76
2023/12/31 17:21:53;;;;;;;;;;;7.80;1.00;;;;;;5111487;28;19919;-82
2023/12/31 17:24:47;;;;;;;;;;;7.70;1.00;;;;;;5116161;28;20270;-80
2023/12/31 17:27:12;;;;;;;;;;;7.70;1.00;;;;;;5107552;27;20286;-77
2023/12/31 17:29:53;;;;;;;;;;;7.70;1.00;;;;;;5112814;27;19912;-77
2023/12/31 17:35:03;;;;;;;;;;;7.60;1.00;;;;;;5106649;27;20026;-77
2023/12/31 17:40:31;;;;;;;;;;;7.60;1.00;;;;;;5122447;27;20044;-78
2023/12/31 17:43:22;;;;;;;;;;;7.70;1.00;;;;;;5114339;28;19957;-78
2023/12/31 17:49:20;;;;;;;;;;;7.70;1.00;;;;;;5108300;28;19934;-76
2023/12/31 17:51:46;;;;;;;;;;;7.70;1.00;;;;;;5116390;28;19924;-77
2023/12/31 17:57:15;;;;;;;;;;;7.70;1.00;;;;;;5136994;27;19915;-82
2023/12/31 18:00:05;;;;;;;;;;;7.70;1.00;;;;;;5099112;28;19912;-82
2023/12/31 18:02:53;;;;;;;;;;;7.60;1.00;;;;;;5090561;28;19911;-83
2023/12/31 18:05:46;;;;;;;;;;;7.70;1.00;;;;;;5099881;28;19919;-83
2023/12/31 18:08:35;;;;;;;;;;;7.60;1.00;;;;;;5095930;28;19996;-83
2023/12/31 18:14:03;;;;;;;;;;;7.50;1.00;;;;;;5095577;28;19931;-82
2023/12/31 18:16:29;;;;;;;;;;;7.40;1.00;;;;;;5077347;28;20355;-82
2023/12/31 18:21:39;;;;;;;;;;;7.50;1.00;;;;;;5100686;28;19916;-82
2023/12/31 18:27:07;;;;;;;;;;;7.60;1.00;;;;;;5095577;28;19959;-82
2023/12/31 18:35:38;;;;;;;;;;;7.70;1.00;;;;;;5095855;28;19915;-82
2023/12/31 18:38:04;;;;;;;;;;;7.80;1.00;;;;;;5115807;27;19911;-78
2023/12/31 18:40:34;;;;;;;;;;;;;;;;;;5103950;27;20503;-78
2023/12/31 18:46:03;;;;;;;;;;;7.70;1.00;;;;;;5113392;27;20453;-78
2023/12/31 18:51:46;;;;;;;;;;;7.70;1.00;;;;;;5122458;27;19923;-76
2023/12/31 18:54:23;;;;;;;;;;;7.70;1.00;;;;;;5108771;28;19916;-84
2023/12/31 18:56:48;;;;;;;;;;;7.60;1.00;;;;;;5127352;27;19912;-78
2023/12/31 19:02:18;;;;;;;;;;;7.40;1.00;;;;;;5107999;28;19962;-77
2023/12/31 19:04:44;;;;;;;;;;;7.30;1.00;;;;;;5115084;28;20316;-76
2023/12/31 19:07:09;;;;;;;;;;;7.30;1.00;;;;;;5111599;28;20368;-77
2023/12/31 19:09:41;;;;;;;;;;;7.20;1.00;;;;;;5110245;28;19919;-77
2023/12/31 19:12:17;;;;;;;;;;;7.20;1.00;;;;;;5101278;28;19908;-78
2023/12/31 19:21:04;;;;;;;;;;;7.00;1.00;;;;;;5103786;28;19918;-79
2023/12/31 19:23:47;;;;;;;;;;;7.00;1.00;;;;;;5100982;28;19914;-77
2023/12/31 19:26:48;;;;;;;;;;;7.00;1.00;;;;;;5114346;28;19951;-77
2023/12/31 19:29:23;;;;;;;;;;;7.00;1.00;;;;;;5100403;28;19958;-74
2023/12/31 19:31:53;;;;;;;;;;;6.90;1.00;;;;;;5095382;28;20254;-76
2023/12/31 19:37:59;;;;;;;;;;;6.90;1.00;;;;;;5131285;27;19991;-75
2023/12/31 19:40:24;;;;;;;;;;;6.80;1.00;;;;;;5107658;28;20371;-75
2023/12/31 19:43:16;;;;;;;;;;;6.80;1.00;;;;;;5094230;28;19966;-81
2023/12/31 19:45:47;;;;;;;;;;;6.70;1.00;;;;;;5080270;28;19919;-79
2023/12/31 19:48:13;;;;;;;;;;;6.70;1.00;;;;;;5112479;28;19957;-79
2023/12/31 19:53:41;;;;;;;;;;;6.70;1.00;;;;;;5114336;28;19961;-79
2023/12/31 19:59:29;;;;;;;;;;;6.70;1.00;;;;;;5126155;28;19995;-76
2023/12/31 20:02:05;;;;;;;;;;;6.70;1.00;;;;;;5118515;28;20008;-76
2023/12/31 20:04:31;;;;;;;;;;;;;;;;;;5106053;28;19938;-74
2023/12/31 20:06:57;;;;;;;;;;;;;;;;;;5115071;28;19919;-74
2023/12/31 20:09:35;;;;;;;;;;;7.00;1.00;;;;;;5118737;28;19943;-73
2023/12/31 20:12:05;;;;;;;;;;;7.10;1.00;;;;;;5105008;28;20096;-74
2023/12/31 20:14:35;;;;;;;;;;;;;;;;;;5129483;27;20325;-73
2023/12/31 20:17:01;;;;;;;;;;;7.10;1.00;;;;;;5118477;28;19919;-74
2023/12/31 20:19:35;;;;;;;;;;;7.00;1.00;;;;;;5085901;28;20275;-74
2023/12/31 20:22:05;;;;;;;;;;;7.00;1.00;;;;;;5105828;28;19916;-74
2023/12/31 20:24:41;;;;;;;;;;;;;;;;;;5136725;27;19912;-74
2023/12/31 20:27:06;;;;;;;;;;;6.90;1.00;;;;;;5139252;27;19915;-74
2023/12/31 20:29:35;;;;;;;;;;;6.80;1.00;;;;;;5138826;27;19956;-74
2023/12/31 20:32:02;;;;;;;;;;;;;;;;;;5120786;27;19916;-74
2023/12/31 20:34:27;;;;;;;;;;;6.70;1.00;;;;;;5100607;28;19912;-74
2023/12/31 20:36:53;;;;;;;;;;;6.70;1.00;;;;;;5112096;28;19960;-74
2023/12/31 20:39:29;;;;;;;;;;;6.70;1.00;;;;;;5114539;28;19912;-74
2023/12/31 20:42:23;;;;;;;;;;;6.80;1.00;;;;;;5106041;28;19918;-75
2023/12/31 20:45:17;;;;;;;;;;;6.80;1.00;;;;;;5128215;27;19919;-82
2023/12/31 20:48:17;;;;;;;;;;;6.70;1.00;;;;;;5097645;28;19912;-81
2023/12/31 21:06:17;;;;;;;;;;;6.90;1.00;;;;;;5107260;28;19934;-81
2023/12/31 21:11:46;;;;;;;;;;;7.00;1.00;;;;;;5098992;28;19930;-81
2023/12/31 21:14:12;;;;;;;;;;;7.00;1.00;;;;;;5116510;27;20328;-73
2023/12/31 21:16:47;;;;;;;;;;;6.90;1.00;;;;;;5117242;28;19916;-74
2023/12/31 21:19:12;;;;;;;;;;;6.90;1.00;;;;;;5104156;28;19908;-74
2023/12/31 21:21:39;;;;;;;;;;;6.80;1.00;;;;;;5115903;28;19908;-74
2023/12/31 21:24:05;;;;;;;;;;;6.80;1.00;;;;;;5103922;28;19938;-74
2023/12/31 21:26:34;;;;;;;;;;;;;;;;;;5123883;27;20359;-74
2023/12/31 21:29:00;;;;;;;;;;;6.70;1.00;;;;;;5117304;28;19953;-74
2023/12/31 21:31:32;;;;;;;;;;;;;;;;;;5109844;28;19943;-74
2023/12/31 21:34:05;;;;;;;;;;;6.70;1.00;;;;;;5111058;28;19999;-74
2023/12/31 21:36:35;;;;;;;;;;;;;;;;;;5117048;28;19915;-74
2023/12/31 21:39:05;;;;;;;;;;;6.60;1.00;;;;;;5103158;28;19907;-74
2023/12/31 21:41:35;;;;;;;;;;;6.60;1.00;;;;;;5119492;27;20191;-74
2023/12/31 21:44:17;;;;;;;;;;;6.60;1.00;;;;;;5101212;28;19912;-82
2023/12/31 21:47:17;;;;;;;;;;;6.50;1.00;;;;;;5108229;28;19912;-81
2023/12/31 21:49:42;;;;;;;;;;;6.50;1.00;;;;;;5078182;28;19927;-82
2023/12/31 21:52:07;;;;;;;;;;;6.40;1.00;;;;;;5091658;28;20002;-82
2023/12/31 21:55:05;;;;;;;;;;;6.40;1.00;;;;;;5123529;27;19918;-81
2023/12/31 21:57:31;;;;;;;;;;;;;;;;;;5078009;28;19912;-74
2023/12/31 22:03:17;;;;;;;;;;;6.40;1.00;;;;;;5104091;28;19958;-82
2023/12/31 22:06:17;;;;;;;;;;;6.40;1.00;;;;;;5103774;28;20065;-82
2023/12/31 22:09:17;;;;;;;;;;;6.50;1.00;;;;;;5101641;28;19916;-82
2023/12/31 22:42:11;;;;;;;;;;;6.50;1.00;;;;;;5115326;27;19922;-81
2023/12/31 22:48:17;;;;;;;;;;;6.40;1.00;;;;;;5112181;27;20335;-81
2023/12/31 22:51:17;;;;;;;;;;;6.40;1.00;;;;;;5113264;27;19963;-81
2023/12/31 23:02:48;;;;;;;;;;;6.40;1.00;;;;;;5097480;28;19919;-81
2023/12/31 23:05:47;;;;;;;;;;;6.40;1.00;;;;;;5124655;27;19916;-82
2023/12/31 23:14:00;;;;;;;;;;;6.60;1.00;;;;;;5110169;28;20352;-74